Meteo Giornale » Osservazioni meteo Italia » Catania-Sigonella

ore: 20:55 - Osservazioni Meteo Catania-Sigonella
Lat. 37° 24' N Lon. 14° 55' E Alt. 22 metri s.l.m.

nuvoloso Europe/Rome

15 °C

Nuvoloso

Temp. 24 Ore

14 °C

24 °C

Ovest

11.1 Km/h

Dew point 15 °C

Umidità 100 %

Visibilità  10 Km

Il sole sorge alle ore 06:21

Il sole tramonta alle ore 17:06

Data e Ora Cielo e Fenomeni T °C DP °C Um. % Pres. hPa Vis. km Vento km/h
Oggi h: 20:55 nuvoloso Nuvoloso 15 15 100 1022 10 O 11.1
Oggi h: 19:55 nuvoloso Nuvoloso 17 17 100 1022 10 N 3.7
Oggi h: 18:55 nuvoloso Nuvoloso 17 17 100 1021 10 S/SE 7.4
Oggi h: 17:55 sereno Sereno 18 18 100 1021 10 SE 9.3
Oggi h: 16:55 sereno Sereno 20 17 82 1020 10 E 16.7
Oggi h: 15:55 sereno Sereno 21 16 73 1020 10 E 20.3
Oggi h: 14:55 sereno Sereno 24 13 50 1020 10 N 3.7
Oggi h: 13:55 sereno Sereno 23 12 49 1020 10 S/SE 7.4
Oggi h: 12:55 sereno Sereno 23 12 49 1020 10 N 3.7
Oggi h: 11:55 sereno Sereno 23 13 53 1021 10 SO 7.4
Oggi h: 10:55 sereno Sereno 21 14 64 1021 10 N 3.7
Oggi h: 09:55 sereno Sereno 20 14 68 1021 10 NO 9.3
Oggi h: 08:55 sereno Sereno 18 15 82 1021 10 N 5.5
Oggi h: 07:55 sereno Sereno 14 14 100 1021 10 N/NO 9.3
Oggi h: 06:55 sereno Sereno 14 14 100 1020 10 O 14.8
Oggi h: 05:55 sereno Sereno 14 14 100 1019 10 O/NO 13
Oggi h: 04:55 sereno Sereno 15 15 100 1019 10 O/NO 16.7
Oggi h: 03:55 sereno Sereno 15 15 100 1019 10 O 13
Oggi h: 02:55 sereno Sereno 15 15 100 1019 10 O 7.4
Oggi h: 01:55 sereno Sereno 15 15 100 1018 10 O/NO 16.7
Oggi h: 00:55 sereno Sereno 15 15 100 1018 10 O 20.3
Ieri h: 23:55 sereno Sereno 15 15 100 1018 10 O 20.3
Ieri h: 22:55 sereno Sereno 15 15 100 1018 10 O 16.7
Ieri h: 21:55 sereno Sereno 16 15 93 1017 10 O/SO 25.9
Ieri h: 20:55 nuvoloso Nuvoloso 16 15 93 1017 10 O/SO 27.8